sensor_id;sensor_type;location;lat;lon;timestamp;pressure;altitude;pressure_sealevel;temperature;humidity
12146;BME280;6136;47.032;15.398;2023-09-19T00:01:09;97026.69;;;19.44;nan
12146;BME280;6136;47.032;15.398;2023-09-19T00:03:39;97038.84;;;19.48;nan
12146;BME280;6136;47.032;15.398;2023-09-19T00:06:11;97032.22;;;19.43;nan
12146;BME280;6136;47.032;15.398;2023-09-19T00:08:40;97040.78;;;19.46;nan
12146;BME280;6136;47.032;15.398;2023-09-19T00:11:11;97042.78;;;19.44;nan
12146;BME280;6136;47.032;15.398;2023-09-19T00:13:39;97032.53;;;19.31;nan
12146;BME280;6136;47.032;15.398;2023-09-19T00:16:09;97034.06;;;19.34;nan
12146;BME280;6136;47.032;15.398;2023-09-19T00:18:39;97045.63;;;19.34;nan
12146;BME280;6136;47.032;15.398;2023-09-19T00:21:07;97044.78;;;19.26;nan
12146;BME280;6136;47.032;15.398;2023-09-19T00:23:38;97045.00;;;19.41;nan
12146;BME280;6136;47.032;15.398;2023-09-19T00:26:07;97037.78;;;19.41;nan
12146;BME280;6136;47.032;15.398;2023-09-19T00:28:36;97036.09;;;19.40;nan
12146;BME280;6136;47.032;15.398;2023-09-19T00:31:07;97031.38;;;19.34;nan
12146;BME280;6136;47.032;15.398;2023-09-19T00:33:36;97033.38;;;19.32;nan
12146;BME280;6136;47.032;15.398;2023-09-19T00:36:05;97027.63;;;19.27;nan
12146;BME280;6136;47.032;15.398;2023-09-19T00:38:33;97028.66;;;19.26;nan
12146;BME280;6136;47.032;15.398;2023-09-19T00:41:03;97036.03;;;19.24;nan
12146;BME280;6136;47.032;15.398;2023-09-19T00:43:32;97041.25;;;19.25;nan
12146;BME280;6136;47.032;15.398;2023-09-19T00:46:02;97038.00;;;19.22;nan
12146;BME280;6136;47.032;15.398;2023-09-19T00:48:31;97047.75;;;19.23;nan
12146;BME280;6136;47.032;15.398;2023-09-19T00:51:06;97042.03;;;19.18;nan
12146;BME280;6136;47.032;15.398;2023-09-19T00:53:34;97050.63;;;19.29;nan
12146;BME280;6136;47.032;15.398;2023-09-19T00:56:05;97046.41;;;19.27;nan
12146;BME280;6136;47.032;15.398;2023-09-19T00:58:35;97055.50;;;19.26;nan
12146;BME280;6136;47.032;15.398;2023-09-19T01:01:06;97050.78;;;19.28;nan
12146;BME280;6136;47.032;15.398;2023-09-19T01:03:36;97051.50;;;19.30;nan
12146;BME280;6136;47.032;15.398;2023-09-19T01:06:05;97056.56;;;19.33;nan
12146;BME280;6136;47.032;15.398;2023-09-19T01:08:34;97052.47;;;19.29;nan
12146;BME280;6136;47.032;15.398;2023-09-19T01:11:10;97055.16;;;19.29;nan
12146;BME280;6136;47.032;15.398;2023-09-19T01:13:48;97063.38;;;19.27;nan
12146;BME280;6136;47.032;15.398;2023-09-19T01:16:32;97051.28;;;19.23;nan
12146;BME280;6136;47.032;15.398;2023-09-19T01:19:21;97044.88;;;19.16;nan
12146;BME280;6136;47.032;15.398;2023-09-19T01:21:57;97053.75;;;19.09;nan
12146;BME280;6136;47.032;15.398;2023-09-19T01:27:57;97054.25;;;19.04;nan
12146;BME280;6136;47.032;15.398;2023-09-19T01:30:33;97051.06;;;19.09;nan
12146;BME280;6136;47.032;15.398;2023-09-19T01:33:05;97050.38;;;19.07;nan
12146;BME280;6136;47.032;15.398;2023-09-19T01:35:35;97033.56;;;19.05;nan
12146;BME280;6136;47.032;15.398;2023-09-19T01:38:06;97048.38;;;19.09;nan
12146;BME280;6136;47.032;15.398;2023-09-19T01:40:41;97036.25;;;19.05;nan
12146;BME280;6136;47.032;15.398;2023-09-19T01:43:17;97055.75;;;19.07;nan
12146;BME280;6136;47.032;15.398;2023-09-19T01:45:57;97051.06;;;19.09;nan
12146;BME280;6136;47.032;15.398;2023-09-19T01:48:35;97045.34;;;19.04;nan
12146;BME280;6136;47.032;15.398;2023-09-19T01:51:06;97045.84;;;19.07;nan
12146;BME280;6136;47.032;15.398;2023-09-19T01:53:41;97046.38;;;19.11;nan
12146;BME280;6136;47.032;15.398;2023-09-19T01:56:17;97060.16;;;19.16;nan
12146;BME280;6136;47.032;15.398;2023-09-19T01:58:54;97058.63;;;19.13;nan
12146;BME280;6136;47.032;15.398;2023-09-19T02:01:27;97048.69;;;19.06;nan
12146;BME280;6136;47.032;15.398;2023-09-19T02:03:56;97069.88;;;19.09;nan
12146;BME280;6136;47.032;15.398;2023-09-19T02:06:25;97074.94;;;19.12;nan
12146;BME280;6136;47.032;15.398;2023-09-19T02:08:54;97063.66;;;19.08;nan
12146;BME280;6136;47.032;15.398;2023-09-19T02:11:22;97071.84;;;19.07;nan
12146;BME280;6136;47.032;15.398;2023-09-19T02:13:51;97078.41;;;19.04;nan
12146;BME280;6136;47.032;15.398;2023-09-19T02:16:21;97089.16;;;19.04;nan
12146;BME280;6136;47.032;15.398;2023-09-19T02:18:51;97094.19;;;19.07;nan
12146;BME280;6136;47.032;15.398;2023-09-19T02:21:20;97095.88;;;19.08;nan
12146;BME280;6136;47.032;15.398;2023-09-19T02:23:48;97097.88;;;19.06;nan
12146;BME280;6136;47.032;15.398;2023-09-19T02:26:18;97085.09;;;19.00;nan
12146;BME280;6136;47.032;15.398;2023-09-19T02:28:47;97082.09;;;19.03;nan
12146;BME280;6136;47.032;15.398;2023-09-19T02:31:15;97088.97;;;19.06;nan
12146;BME280;6136;47.032;15.398;2023-09-19T02:33:45;97086.22;;;18.97;nan
12146;BME280;6136;47.032;15.398;2023-09-19T02:36:15;97102.09;;;19.09;nan
12146;BME280;6136;47.032;15.398;2023-09-19T02:38:44;97107.31;;;19.10;nan
12146;BME280;6136;47.032;15.398;2023-09-19T02:41:13;97095.69;;;19.02;nan
12146;BME280;6136;47.032;15.398;2023-09-19T02:43:41;97104.44;;;19.04;nan
12146;BME280;6136;47.032;15.398;2023-09-19T02:46:10;97108.63;;;19.06;nan
12146;BME280;6136;47.032;15.398;2023-09-19T02:48:39;97120.19;;;19.07;nan
12146;BME280;6136;47.032;15.398;2023-09-19T02:51:08;97126.09;;;19.10;nan
12146;BME280;6136;47.032;15.398;2023-09-19T02:53:39;97123.28;;;19.12;nan
12146;BME280;6136;47.032;15.398;2023-09-19T02:56:08;97140.00;;;19.06;nan
12146;BME280;6136;47.032;15.398;2023-09-19T02:58:39;97138.53;;;19.11;nan
12146;BME280;6136;47.032;15.398;2023-09-19T03:01:09;97145.91;;;19.09;nan
12146;BME280;6136;47.032;15.398;2023-09-19T03:03:38;97138.94;;;18.98;nan
12146;BME280;6136;47.032;15.398;2023-09-19T03:06:07;97146.84;;;19.00;nan
12146;BME280;6136;47.032;15.398;2023-09-19T03:08:39;97144.09;;;18.92;nan
12146;BME280;6136;47.032;15.398;2023-09-19T03:11:10;97149.28;;;18.85;nan
12146;BME280;6136;47.032;15.398;2023-09-19T03:13:42;97151.31;;;18.91;nan
12146;BME280;6136;47.032;15.398;2023-09-19T03:16:13;97149.28;;;18.85;nan
12146;BME280;6136;47.032;15.398;2023-09-19T03:18:42;97160.75;;;18.95;nan
12146;BME280;6136;47.032;15.398;2023-09-19T03:21:11;97170.13;;;18.91;nan
12146;BME280;6136;47.032;15.398;2023-09-19T03:23:42;97158.53;;;18.91;nan
12146;BME280;6136;47.032;15.398;2023-09-19T03:26:12;97159.16;;;18.85;nan
12146;BME280;6136;47.032;15.398;2023-09-19T03:28:42;97181.91;;;18.98;nan
12146;BME280;6136;47.032;15.398;2023-09-19T03:31:11;97172.34;;;18.96;nan
12146;BME280;6136;47.032;15.398;2023-09-19T03:33:39;97173.50;;;18.93;nan
12146;BME280;6136;47.032;15.398;2023-09-19T03:36:09;97166.84;;;18.80;nan
12146;BME280;6136;47.032;15.398;2023-09-19T03:38:37;97168.53;;;18.81;nan
12146;BME280;6136;47.032;15.398;2023-09-19T03:41:07;97170.53;;;18.79;nan
12146;BME280;6136;47.032;15.398;2023-09-19T03:43:36;97170.69;;;18.77;nan
12146;BME280;6136;47.032;15.398;2023-09-19T03:46:05;97170.16;;;18.74;nan
12146;BME280;6136;47.032;15.398;2023-09-19T03:48:37;97183.59;;;18.74;nan
12146;BME280;6136;47.032;15.398;2023-09-19T03:51:05;97173.16;;;18.71;nan
12146;BME280;6136;47.032;15.398;2023-09-19T03:53:34;97173.78;;;18.65;nan
12146;BME280;6136;47.032;15.398;2023-09-19T03:56:02;97172.94;;;18.64;nan
12146;BME280;6136;47.032;15.398;2023-09-19T03:58:34;97179.75;;;18.58;nan
12146;BME280;6136;47.032;15.398;2023-09-19T04:01:06;97180.75;;;18.57;nan
12146;BME280;6136;47.032;15.398;2023-09-19T04:03:35;97168.19;;;18.58;nan
12146;BME280;6136;47.032;15.398;2023-09-19T04:06:13;97167.09;;;18.51;nan
12146;BME280;6136;47.032;15.398;2023-09-19T04:08:42;97174.16;;;18.52;nan
12146;BME280;6136;47.032;15.398;2023-09-19T04:11:11;97183.72;;;18.54;nan
12146;BME280;6136;47.032;15.398;2023-09-19T04:13:41;97180.50;;;18.51;nan
12146;BME280;6136;47.032;15.398;2023-09-19T04:16:09;97186.03;;;18.49;nan
12146;BME280;6136;47.032;15.398;2023-09-19T04:18:39;97194.22;;;18.48;nan
12146;BME280;6136;47.032;15.398;2023-09-19T04:21:08;97200.91;;;18.44;nan
12146;BME280;6136;47.032;15.398;2023-09-19T04:23:37;97208.94;;;18.44;nan
12146;BME280;6136;47.032;15.398;2023-09-19T04:26:05;97214.59;;;18.41;nan
12146;BME280;6136;47.032;15.398;2023-09-19T04:28:34;97210.56;;;18.37;nan
12146;BME280;6136;47.032;15.398;2023-09-19T04:31:07;97219.50;;;18.28;nan
12146;BME280;6136;47.032;15.398;2023-09-19T04:33:38;97216.50;;;18.31;nan
12146;BME280;6136;47.032;15.398;2023-09-19T04:36:07;97224.88;;;18.28;nan
12146;BME280;6136;47.032;15.398;2023-09-19T04:38:56;97220.63;;;18.25;nan
12146;BME280;6136;47.032;15.398;2023-09-19T04:41:25;97224.69;;;18.11;nan
12146;BME280;6136;47.032;15.398;2023-09-19T04:43:53;97231.75;;;18.12;nan
12146;BME280;6136;47.032;15.398;2023-09-19T04:46:24;97229.22;;;18.11;nan
12146;BME280;6136;47.032;15.398;2023-09-19T04:48:52;97220.63;;;18.07;nan
12146;BME280;6136;47.032;15.398;2023-09-19T04:51:21;97230.59;;;18.15;nan
12146;BME280;6136;47.032;15.398;2023-09-19T04:53:50;97239.41;;;18.07;nan
12146;BME280;6136;47.032;15.398;2023-09-19T04:56:18;97242.94;;;18.08;nan
12146;BME280;6136;47.032;15.398;2023-09-19T04:58:48;97248.03;;;18.01;nan
12146;BME280;6136;47.032;15.398;2023-09-19T05:01:17;97242.03;;;17.90;nan
12146;BME280;6136;47.032;15.398;2023-09-19T05:03:47;97248.50;;;17.87;nan
12146;BME280;6136;47.032;15.398;2023-09-19T05:06:19;97250.81;;;17.82;nan
12146;BME280;6136;47.032;15.398;2023-09-19T05:08:48;97250.56;;;17.75;nan
12146;BME280;6136;47.032;15.398;2023-09-19T05:11:19;97248.34;;;17.71;nan
12146;BME280;6136;47.032;15.398;2023-09-19T05:13:50;97248.47;;;17.69;nan
12146;BME280;6136;47.032;15.398;2023-09-19T05:16:20;97263.97;;;17.75;nan
12146;BME280;6136;47.032;15.398;2023-09-19T05:18:50;97265.50;;;17.78;nan
12146;BME280;6136;47.032;15.398;2023-09-19T05:21:19;97267.47;;;17.76;nan
12146;BME280;6136;47.032;15.398;2023-09-19T05:23:47;97259.06;;;17.71;nan
12146;BME280;6136;47.032;15.398;2023-09-19T05:26:16;97270.44;;;17.73;nan
12146;BME280;6136;47.032;15.398;2023-09-19T05:28:44;97279.34;;;17.64;nan
12146;BME280;6136;47.032;15.398;2023-09-19T05:31:14;97268.66;;;17.54;nan
12146;BME280;6136;47.032;15.398;2023-09-19T05:33:43;97278.69;;;17.62;nan
12146;BME280;6136;47.032;15.398;2023-09-19T05:36:13;97274.41;;;17.59;nan
12146;BME280;6136;47.032;15.398;2023-09-19T05:38:44;97280.75;;;17.77;nan
12146;BME280;6136;47.032;15.398;2023-09-19T05:41:15;97272.97;;;17.84;nan
12146;BME280;6136;47.032;15.398;2023-09-19T05:43:44;97273.25;;;17.81;nan
12146;BME280;6136;47.032;15.398;2023-09-19T05:46:13;97263.50;;;17.80;nan
12146;BME280;6136;47.032;15.398;2023-09-19T05:48:42;97266.88;;;17.82;nan
12146;BME280;6136;47.032;15.398;2023-09-19T05:51:12;97282.00;;;17.83;nan
12146;BME280;6136;47.032;15.398;2023-09-19T05:53:40;97276.47;;;17.84;nan
12146;BME280;6136;47.032;15.398;2023-09-19T05:56:10;97278.44;;;17.92;nan
12146;BME280;6136;47.032;15.398;2023-09-19T05:58:41;97278.44;;;17.92;nan
12146;BME280;6136;47.032;15.398;2023-09-19T06:01:11;97283.34;;;17.97;nan
12146;BME280;6136;47.032;15.398;2023-09-19T06:03:40;97291.94;;;18.00;nan
12146;BME280;6136;47.032;15.398;2023-09-19T06:06:08;97279.81;;;17.96;nan
12146;BME280;6136;47.032;15.398;2023-09-19T06:08:38;97285.56;;;18.01;nan
12146;BME280;6136;47.032;15.398;2023-09-19T06:11:07;97278.91;;;18.05;nan
12146;BME280;6136;47.032;15.398;2023-09-19T06:13:36;97287.22;;;18.12;nan
12146;BME280;6136;47.032;15.398;2023-09-19T06:16:06;97290.94;;;18.29;nan
12146;BME280;6136;47.032;15.398;2023-09-19T06:18:36;97285.16;;;18.23;nan
12146;BME280;6136;47.032;15.398;2023-09-19T06:21:05;97296.06;;;18.22;nan
12146;BME280;6136;47.032;15.398;2023-09-19T06:23:34;97304.25;;;18.20;nan
12146;BME280;6136;47.032;15.398;2023-09-19T06:26:04;97316.13;;;18.18;nan
12146;BME280;6136;47.032;15.398;2023-09-19T06:28:35;97306.94;;;18.20;nan
12146;BME280;6136;47.032;15.398;2023-09-19T06:31:03;97308.63;;;18.21;nan
12146;BME280;6136;47.032;15.398;2023-09-19T06:33:37;97306.22;;;18.18;nan
12146;BME280;6136;47.032;15.398;2023-09-19T06:36:07;97312.69;;;18.26;nan
12146;BME280;6136;47.032;15.398;2023-09-19T06:38:35;97319.00;;;18.34;nan
12146;BME280;6136;47.032;15.398;2023-09-19T06:41:05;97326.31;;;18.42;nan
12146;BME280;6136;47.032;15.398;2023-09-19T06:43:34;97325.09;;;18.54;nan
12146;BME280;6136;47.032;15.398;2023-09-19T06:46:03;97336.94;;;18.61;nan
12146;BME280;6136;47.032;15.398;2023-09-19T06:48:34;97342.16;;;18.63;nan
12146;BME280;6136;47.032;15.398;2023-09-19T06:51:03;97346.88;;;18.78;nan
12146;BME280;6136;47.032;15.398;2023-09-19T06:53:32;97357.97;;;18.83;nan
12146;BME280;6136;47.032;15.398;2023-09-19T06:56:01;97368.16;;;18.89;nan
12146;BME280;6136;47.032;15.398;2023-09-19T06:58:31;97371.59;;;18.99;nan
12146;BME280;6136;47.032;15.398;2023-09-19T07:01:00;97368.69;;;19.11;nan
12146;BME280;6136;47.032;15.398;2023-09-19T07:03:30;97365.47;;;19.25;nan
12146;BME280;6136;47.032;15.398;2023-09-19T07:06:00;97369.84;;;19.26;nan
12146;BME280;6136;47.032;15.398;2023-09-19T07:08:31;97378.56;;;19.28;nan
12146;BME280;6136;47.032;15.398;2023-09-19T07:10:59;97383.81;;;19.29;nan
12146;BME280;6136;47.032;15.398;2023-09-19T07:13:28;97376.66;;;19.20;nan
12146;BME280;6136;47.032;15.398;2023-09-19T07:15:58;97381.50;;;19.17;nan
12146;BME280;6136;47.032;15.398;2023-09-19T07:18:26;97375.13;;;19.18;nan
12146;BME280;6136;47.032;15.398;2023-09-19T07:20:57;97382.22;;;19.19;nan
12146;BME280;6136;47.032;15.398;2023-09-19T07:23:31;97389.50;;;19.26;nan
12146;BME280;6136;47.032;15.398;2023-09-19T07:26:01;97390.78;;;19.22;nan
12146;BME280;6136;47.032;15.398;2023-09-19T07:28:32;97396.63;;;19.35;nan
12146;BME280;6136;47.032;15.398;2023-09-19T07:31:03;97409.59;;;19.40;nan
12146;BME280;6136;47.032;15.398;2023-09-19T07:33:34;97414.28;;;19.38;nan
12146;BME280;6136;47.032;15.398;2023-09-19T07:36:03;97408.59;;;19.41;nan
12146;BME280;6136;47.032;15.398;2023-09-19T07:38:32;97416.75;;;19.49;nan
12146;BME280;6136;47.032;15.398;2023-09-19T07:41:02;97418.38;;;19.60;nan
12146;BME280;6136;47.032;15.398;2023-09-19T07:43:32;97418.59;;;19.66;nan
12146;BME280;6136;47.032;15.398;2023-09-19T07:46:04;97423.47;;;19.89;nan
12146;BME280;6136;47.032;15.398;2023-09-19T07:48:34;97432.34;;;20.07;nan
12146;BME280;6136;47.032;15.398;2023-09-19T07:51:03;97430.59;;;20.24;nan
12146;BME280;6136;47.032;15.398;2023-09-19T07:53:31;97435.13;;;20.75;nan
12146;BME280;6136;47.032;15.398;2023-09-19T07:56:02;97428.94;;;21.65;nan
12146;BME280;6136;47.032;15.398;2023-09-19T07:58:31;97441.19;;;22.57;nan
12146;BME280;6136;47.032;15.398;2023-09-19T08:01:05;97439.97;;;22.75;nan
12146;BME280;6136;47.032;15.398;2023-09-19T08:03:34;97448.34;;;22.97;nan
12146;BME280;6136;47.032;15.398;2023-09-19T08:06:07;97446.63;;;23.04;nan
12146;BME280;6136;47.032;15.398;2023-09-19T08:08:36;97449.97;;;23.68;nan
12146;BME280;6136;47.032;15.398;2023-09-19T08:11:06;97453.97;;;24.55;nan
12146;BME280;6136;47.032;15.398;2023-09-19T08:13:39;97459.31;;;25.07;nan
12146;BME280;6136;47.032;15.398;2023-09-19T08:16:11;97452.06;;;25.29;nan
12146;BME280;6136;47.032;15.398;2023-09-19T08:18:42;97449.81;;;26.32;nan
12146;BME280;6136;47.032;15.398;2023-09-19T08:21:11;97458.69;;;27.03;nan
12146;BME280;6136;47.032;15.398;2023-09-19T08:23:43;97448.50;;;27.79;nan
12146;BME280;6136;47.032;15.398;2023-09-19T08:26:12;97459.00;;;27.95;nan
12146;BME280;6136;47.032;15.398;2023-09-19T08:28:41;97457.81;;;28.37;nan
12146;BME280;6136;47.032;15.398;2023-09-19T08:31:10;97455.75;;;29.75;nan
12146;BME280;6136;47.032;15.398;2023-09-19T08:33:39;97454.41;;;30.46;nan
12146;BME280;6136;47.032;15.398;2023-09-19T08:36:09;97440.75;;;30.22;nan
12146;BME280;6136;47.032;15.398;2023-09-19T08:38:41;97456.50;;;29.95;nan
12146;BME280;6136;47.032;15.398;2023-09-19T08:41:09;97451.56;;;29.21;nan
12146;BME280;6136;47.032;15.398;2023-09-19T08:43:37;97456.84;;;29.16;nan
12146;BME280;6136;47.032;15.398;2023-09-19T08:46:11;97452.75;;;29.83;nan
12146;BME280;6136;47.032;15.398;2023-09-19T08:48:46;97443.66;;;31.68;nan
12146;BME280;6136;47.032;15.398;2023-09-19T08:51:18;97456.78;;;33.30;nan
12146;BME280;6136;47.032;15.398;2023-09-19T08:53:51;97447.88;;;35.25;nan
12146;BME280;6136;47.032;15.398;2023-09-19T08:56:22;97450.50;;;32.18;nan
12146;BME280;6136;47.032;15.398;2023-09-19T08:58:57;97454.66;;;30.45;nan
12146;BME280;6136;47.032;15.398;2023-09-19T09:01:28;97466.47;;;29.25;nan
12146;BME280;6136;47.032;15.398;2023-09-19T09:03:57;97467.84;;;28.96;nan
12146;BME280;6136;47.032;15.398;2023-09-19T09:06:26;97465.38;;;28.29;nan
12146;BME280;6136;47.032;15.398;2023-09-19T09:08:55;97461.50;;;27.70;nan
12146;BME280;6136;47.032;15.398;2023-09-19T09:11:24;97466.38;;;28.08;nan
12146;BME280;6136;47.032;15.398;2023-09-19T09:13:53;97465.78;;;28.58;nan
12146;BME280;6136;47.032;15.398;2023-09-19T09:16:21;97471.03;;;29.44;nan
12146;BME280;6136;47.032;15.398;2023-09-19T09:18:54;97471.97;;;29.18;nan
12146;BME280;6136;47.032;15.398;2023-09-19T09:21:25;97460.25;;;27.86;nan
12146;BME280;6136;47.032;15.398;2023-09-19T09:23:53;97485.56;;;27.19;nan
12146;BME280;6136;47.032;15.398;2023-09-19T09:26:41;97474.22;;;26.53;nan
12146;BME280;6136;47.032;15.398;2023-09-19T09:29:10;97489.41;;;25.77;nan
12146;BME280;6136;47.032;15.398;2023-09-19T09:31:39;97485.13;;;25.03;nan
12146;BME280;6136;47.032;15.398;2023-09-19T09:34:11;97486.53;;;25.49;nan
12146;BME280;6136;47.032;15.398;2023-09-19T09:36:41;97478.84;;;25.17;nan
12146;BME280;6136;47.032;15.398;2023-09-19T09:39:09;97483.28;;;25.03;nan
12146;BME280;6136;47.032;15.398;2023-09-19T09:41:45;97484.75;;;24.91;nan
12146;BME280;6136;47.032;15.398;2023-09-19T09:44:14;97488.03;;;25.01;nan
12146;BME280;6136;47.032;15.398;2023-09-19T09:46:45;97488.38;;;24.98;nan
12146;BME280;6136;47.032;15.398;2023-09-19T09:49:47;97491.56;;;25.17;nan
12146;BME280;6136;47.032;15.398;2023-09-19T09:52:21;97489.53;;;25.55;nan
12146;BME280;6136;47.032;15.398;2023-09-19T09:55:01;97487.75;;;25.11;nan
12146;BME280;6136;47.032;15.398;2023-09-19T09:57:34;97489.41;;;26.20;nan
12146;BME280;6136;47.032;15.398;2023-09-19T10:00:03;97482.56;;;28.29;nan
12146;BME280;6136;47.032;15.398;2023-09-19T10:02:47;97475.09;;;31.47;nan
12146;BME280;6136;47.032;15.398;2023-09-19T10:05:18;97482.44;;;33.12;nan
12146;BME280;6136;47.032;15.398;2023-09-19T10:07:55;97479.28;;;33.96;nan
12146;BME280;6136;47.032;15.398;2023-09-19T10:10:31;97473.47;;;34.71;nan
12146;BME280;6136;47.032;15.398;2023-09-19T10:13:11;97475.75;;;37.64;nan
12146;BME280;6136;47.032;15.398;2023-09-19T10:15:43;97476.56;;;39.03;nan
12146;BME280;6136;47.032;15.398;2023-09-19T10:18:16;97478.41;;;38.06;nan
12146;BME280;6136;47.032;15.398;2023-09-19T10:20:49;97474.75;;;35.57;nan
12146;BME280;6136;47.032;15.398;2023-09-19T10:23:19;97485.19;;;35.55;nan
12146;BME280;6136;47.032;15.398;2023-09-19T10:25:51;97479.50;;;35.39;nan
12146;BME280;6136;47.032;15.398;2023-09-19T10:28:20;97483.59;;;38.02;nan
12146;BME280;6136;47.032;15.398;2023-09-19T10:30:51;97484.47;;;36.08;nan
12146;BME280;6136;47.032;15.398;2023-09-19T10:33:20;97475.91;;;36.09;nan
12146;BME280;6136;47.032;15.398;2023-09-19T10:35:51;97471.75;;;36.07;nan
12146;BME280;6136;47.032;15.398;2023-09-19T10:38:22;97473.22;;;36.41;nan
12146;BME280;6136;47.032;15.398;2023-09-19T10:40:52;97473.94;;;36.96;nan
12146;BME280;6136;47.032;15.398;2023-09-19T10:43:25;97468.31;;;37.75;nan
12146;BME280;6136;47.032;15.398;2023-09-19T10:46:01;97477.44;;;37.75;nan
12146;BME280;6136;47.032;15.398;2023-09-19T10:48:31;97474.44;;;36.55;nan
12146;BME280;6136;47.032;15.398;2023-09-19T10:51:04;97467.97;;;36.72;nan
12146;BME280;6136;47.032;15.398;2023-09-19T10:53:43;97464.00;;;36.04;nan
12146;BME280;6136;47.032;15.398;2023-09-19T10:56:19;97469.09;;;35.68;nan
12146;BME280;6136;47.032;15.398;2023-09-19T10:58:49;97465.28;;;34.25;nan
12146;BME280;6136;47.032;15.398;2023-09-19T11:01:18;97458.72;;;36.02;nan
12146;BME280;6136;47.032;15.398;2023-09-19T11:03:48;97457.63;;;35.16;nan
12146;BME280;6136;47.032;15.398;2023-09-19T11:06:39;97460.19;;;36.10;nan
12146;BME280;6136;47.032;15.398;2023-09-19T11:09:08;97447.22;;;35.84;nan
12146;BME280;6136;47.032;15.398;2023-09-19T11:11:50;97446.81;;;35.48;nan
12146;BME280;6136;47.032;15.398;2023-09-19T11:14:40;97457.41;;;33.61;nan
12146;BME280;6136;47.032;15.398;2023-09-19T11:17:42;97451.06;;;34.17;nan
12146;BME280;6136;47.032;15.398;2023-09-19T11:20:20;97459.75;;;33.69;nan
12146;BME280;6136;47.032;15.398;2023-09-19T11:23:19;97451.09;;;35.83;nan
12146;BME280;6136;47.032;15.398;2023-09-19T11:25:50;97450.03;;;36.42;nan
12146;BME280;6136;47.032;15.398;2023-09-19T11:28:33;97447.88;;;35.69;nan
12146;BME280;6136;47.032;15.398;2023-09-19T11:31:41;97458.13;;;34.58;nan
12146;BME280;6136;47.032;15.398;2023-09-19T11:34:45;97447.44;;;34.28;nan
12146;BME280;6136;47.032;15.398;2023-09-19T11:40:44;97447.94;;;33.28;nan
12146;BME280;6136;47.032;15.398;2023-09-19T11:43:28;97443.63;;;34.17;nan
12146;BME280;6136;47.032;15.398;2023-09-19T11:46:07;97444.88;;;35.27;nan
12146;BME280;6136;47.032;15.398;2023-09-19T11:48:38;97442.66;;;33.38;nan
12146;BME280;6136;47.032;15.398;2023-09-19T11:51:15;97436.81;;;35.03;nan
12146;BME280;6136;47.032;15.398;2023-09-19T11:53:50;97434.31;;;34.18;nan
12146;BME280;6136;47.032;15.398;2023-09-19T11:56:21;97435.97;;;33.74;nan
12146;BME280;6136;47.032;15.398;2023-09-19T11:58:53;97442.31;;;33.75;nan
12146;BME280;6136;47.032;15.398;2023-09-19T12:01:24;97428.44;;;34.60;nan
12146;BME280;6136;47.032;15.398;2023-09-19T12:03:54;97432.44;;;33.50;nan
12146;BME280;6136;47.032;15.398;2023-09-19T12:06:24;97427.31;;;34.61;nan
12146;BME280;6136;47.032;15.398;2023-09-19T12:08:53;97421.66;;;33.61;nan
12146;BME280;6136;47.032;15.398;2023-09-19T12:11:28;97422.91;;;33.53;nan
12146;BME280;6136;47.032;15.398;2023-09-19T12:14:01;97420.25;;;32.48;nan
12146;BME280;6136;47.032;15.398;2023-09-19T12:16:31;97420.94;;;32.20;nan
12146;BME280;6136;47.032;15.398;2023-09-19T12:19:20;97415.97;;;31.39;nan
12146;BME280;6136;47.032;15.398;2023-09-19T12:21:57;97407.31;;;32.14;nan
12146;BME280;6136;47.032;15.398;2023-09-19T12:24:27;97411.53;;;31.27;nan
12146;BME280;6136;47.032;15.398;2023-09-19T12:27:02;97407.56;;;31.22;nan
12146;BME280;6136;47.032;15.398;2023-09-19T12:29:43;97417.41;;;31.05;nan
12146;BME280;6136;47.032;15.398;2023-09-19T12:32:11;97416.06;;;30.96;nan
12146;BME280;6136;47.032;15.398;2023-09-19T12:34:51;97410.41;;;31.46;nan
12146;BME280;6136;47.032;15.398;2023-09-19T12:37:20;97428.88;;;30.77;nan
12146;BME280;6136;47.032;15.398;2023-09-19T12:39:50;97419.09;;;30.88;nan
12146;BME280;6136;47.032;15.398;2023-09-19T12:42:23;97425.63;;;31.05;nan
12146;BME280;6136;47.032;15.398;2023-09-19T12:44:56;97425.31;;;29.26;nan
12146;BME280;6136;47.032;15.398;2023-09-19T12:47:28;97421.50;;;29.34;nan
12146;BME280;6136;47.032;15.398;2023-09-19T12:50:08;97427.16;;;28.81;nan
12146;BME280;6136;47.032;15.398;2023-09-19T12:52:43;97423.69;;;29.06;nan
12146;BME280;6136;47.032;15.398;2023-09-19T12:55:22;97424.25;;;29.27;nan
12146;BME280;6136;47.032;15.398;2023-09-19T12:58:07;97432.00;;;28.53;nan
12146;BME280;6136;47.032;15.398;2023-09-19T13:00:37;97432.84;;;28.47;nan
12146;BME280;6136;47.032;15.398;2023-09-19T13:03:11;97433.03;;;28.65;nan
12146;BME280;6136;47.032;15.398;2023-09-19T13:05:50;97433.09;;;29.23;nan
12146;BME280;6136;47.032;15.398;2023-09-19T13:08:20;97424.19;;;29.85;nan
12146;BME280;6136;47.032;15.398;2023-09-19T13:11:06;97431.47;;;29.60;nan
12146;BME280;6136;47.032;15.398;2023-09-19T13:13:39;97436.88;;;29.66;nan
12146;BME280;6136;47.032;15.398;2023-09-19T13:16:10;97439.34;;;29.30;nan
12146;BME280;6136;47.032;15.398;2023-09-19T13:18:45;97433.38;;;29.02;nan
12146;BME280;6136;47.032;15.398;2023-09-19T13:21:14;97441.63;;;28.75;nan
12146;BME280;6136;47.032;15.398;2023-09-19T13:23:51;97434.28;;;28.63;nan
12146;BME280;6136;47.032;15.398;2023-09-19T13:26:19;97431.75;;;28.61;nan
12146;BME280;6136;47.032;15.398;2023-09-19T13:28:51;97433.00;;;28.85;nan
12146;BME280;6136;47.032;15.398;2023-09-19T13:31:19;97423.56;;;28.87;nan
12146;BME280;6136;47.032;15.398;2023-09-19T13:33:48;97426.72;;;28.71;nan
12146;BME280;6136;47.032;15.398;2023-09-19T13:36:17;97420.41;;;28.90;nan
12146;BME280;6136;47.032;15.398;2023-09-19T13:38:45;97423.84;;;28.53;nan
12146;BME280;6136;47.032;15.398;2023-09-19T13:41:16;97422.34;;;27.78;nan
12146;BME280;6136;47.032;15.398;2023-09-19T13:43:44;97427.63;;;28.19;nan
12146;BME280;6136;47.032;15.398;2023-09-19T13:46:16;97429.41;;;28.91;nan
12146;BME280;6136;47.032;15.398;2023-09-19T13:48:52;97429.22;;;28.86;nan
12146;BME280;6136;47.032;15.398;2023-09-19T13:51:21;97428.00;;;28.49;nan
12146;BME280;6136;47.032;15.398;2023-09-19T13:53:51;97421.31;;;28.45;nan